sensor_id;sensor_type;location;lat;lon;timestamp;temperature;humidity
19555;DHT22;9924;50.828;6.440;2022-08-18T00:00:34;17.50;99.90
19555;DHT22;9924;50.828;6.440;2022-08-18T00:03:07;17.40;99.90
19555;DHT22;9924;50.828;6.440;2022-08-18T00:05:33;17.30;99.90
19555;DHT22;9924;50.828;6.440;2022-08-18T00:07:59;17.10;99.90
19555;DHT22;9924;50.828;6.440;2022-08-18T00:10:25;17.10;99.90
19555;DHT22;9924;50.828;6.440;2022-08-18T00:12:51;17.20;99.90
19555;DHT22;9924;50.828;6.440;2022-08-18T00:15:18;17.30;99.90
19555;DHT22;9924;50.828;6.440;2022-08-18T00:17:45;17.20;99.90
19555;DHT22;9924;50.828;6.440;2022-08-18T00:20:15;17.10;99.90
19555;DHT22;9924;50.828;6.440;2022-08-18T00:22:41;17.10;99.90
19555;DHT22;9924;50.828;6.440;2022-08-18T00:25:09;17.10;99.90
19555;DHT22;9924;50.828;6.440;2022-08-18T00:27:36;17.10;99.90
19555;DHT22;9924;50.828;6.440;2022-08-18T00:30:05;17.10;99.90
19555;DHT22;9924;50.828;6.440;2022-08-18T00:32:34;17.00;99.90
19555;DHT22;9924;50.828;6.440;2022-08-18T00:35:11;17.00;99.90
19555;DHT22;9924;50.828;6.440;2022-08-18T00:37:41;16.90;99.90
19555;DHT22;9924;50.828;6.440;2022-08-18T00:40:09;17.00;99.90
19555;DHT22;9924;50.828;6.440;2022-08-18T00:42:42;17.00;99.90
19555;DHT22;9924;50.828;6.440;2022-08-18T00:45:11;17.10;99.90
19555;DHT22;9924;50.828;6.440;2022-08-18T00:47:37;16.90;99.90
19555;DHT22;9924;50.828;6.440;2022-08-18T00:50:03;16.90;99.90
19555;DHT22;9924;50.828;6.440;2022-08-18T00:52:29;16.90;99.90
19555;DHT22;9924;50.828;6.440;2022-08-18T00:55:01;16.90;99.90
19555;DHT22;9924;50.828;6.440;2022-08-18T00:57:30;16.90;99.90
19555;DHT22;9924;50.828;6.440;2022-08-18T01:00:02;17.00;99.90
19555;DHT22;9924;50.828;6.440;2022-08-18T01:02:40;17.10;99.90
19555;DHT22;9924;50.828;6.440;2022-08-18T01:07:46;17.00;99.90
19555;DHT22;9924;50.828;6.440;2022-08-18T01:10:14;16.90;99.90
19555;DHT22;9924;50.828;6.440;2022-08-18T01:12:46;16.80;99.90
19555;DHT22;9924;50.828;6.440;2022-08-18T01:15:13;16.70;99.90
19555;DHT22;9924;50.828;6.440;2022-08-18T01:17:40;16.50;99.90
19555;DHT22;9924;50.828;6.440;2022-08-18T01:20:33;16.40;99.90
19555;DHT22;9924;50.828;6.440;2022-08-18T01:23:19;16.30;99.90
19555;DHT22;9924;50.828;6.440;2022-08-18T01:25:47;16.30;99.90
19555;DHT22;9924;50.828;6.440;2022-08-18T01:28:27;16.20;99.90
19555;DHT22;9924;50.828;6.440;2022-08-18T01:30:55;16.20;99.90
19555;DHT22;9924;50.828;6.440;2022-08-18T01:33:32;16.10;99.90
19555;DHT22;9924;50.828;6.440;2022-08-18T01:36:17;16.20;99.90
19555;DHT22;9924;50.828;6.440;2022-08-18T01:38:45;16.20;99.90
19555;DHT22;9924;50.828;6.440;2022-08-18T01:41:13;16.20;99.90
19555;DHT22;9924;50.828;6.440;2022-08-18T01:43:39;16.30;99.90
19555;DHT22;9924;50.828;6.440;2022-08-18T01:46:05;16.40;99.90
19555;DHT22;9924;50.828;6.440;2022-08-18T01:48:32;16.40;99.90
19555;DHT22;9924;50.828;6.440;2022-08-18T01:51:08;16.50;99.90
19555;DHT22;9924;50.828;6.440;2022-08-18T01:53:35;16.50;99.90
19555;DHT22;9924;50.828;6.440;2022-08-18T01:56:01;16.50;99.90
19555;DHT22;9924;50.828;6.440;2022-08-18T01:58:33;16.50;99.90
19555;DHT22;9924;50.828;6.440;2022-08-18T02:01:00;16.50;99.90
19555;DHT22;9924;50.828;6.440;2022-08-18T02:03:33;16.50;99.90
19555;DHT22;9924;50.828;6.440;2022-08-18T02:06:02;16.40;99.90
19555;DHT22;9924;50.828;6.440;2022-08-18T02:08:29;16.40;99.90
19555;DHT22;9924;50.828;6.440;2022-08-18T02:10:55;16.50;99.90
19555;DHT22;9924;50.828;6.440;2022-08-18T02:13:22;16.60;99.90
19555;DHT22;9924;50.828;6.440;2022-08-18T02:15:48;16.60;99.90
19555;DHT22;9924;50.828;6.440;2022-08-18T02:18:19;16.60;99.90
19555;DHT22;9924;50.828;6.440;2022-08-18T02:20:45;16.60;99.90
19555;DHT22;9924;50.828;6.440;2022-08-18T02:23:11;16.40;99.90
19555;DHT22;9924;50.828;6.440;2022-08-18T02:25:37;16.40;99.90
19555;DHT22;9924;50.828;6.440;2022-08-18T02:28:04;16.50;99.90
19555;DHT22;9924;50.828;6.440;2022-08-18T02:30:30;16.50;99.90
19555;DHT22;9924;50.828;6.440;2022-08-18T02:32:59;16.50;99.90
19555;DHT22;9924;50.828;6.440;2022-08-18T02:35:26;16.60;99.90
19555;DHT22;9924;50.828;6.440;2022-08-18T02:37:52;16.60;99.90
19555;DHT22;9924;50.828;6.440;2022-08-18T02:40:18;16.60;99.90
19555;DHT22;9924;50.828;6.440;2022-08-18T02:42:45;16.50;99.90
19555;DHT22;9924;50.828;6.440;2022-08-18T02:45:12;16.50;99.90
19555;DHT22;9924;50.828;6.440;2022-08-18T02:47:38;16.60;99.90
19555;DHT22;9924;50.828;6.440;2022-08-18T02:50:05;16.60;99.90
19555;DHT22;9924;50.828;6.440;2022-08-18T02:52:31;16.60;99.90
19555;DHT22;9924;50.828;6.440;2022-08-18T02:54:58;16.60;99.90
19555;DHT22;9924;50.828;6.440;2022-08-18T02:57:26;16.60;99.90
19555;DHT22;9924;50.828;6.440;2022-08-18T02:59:53;16.60;99.90
19555;DHT22;9924;50.828;6.440;2022-08-18T03:02:19;16.60;99.90
19555;DHT22;9924;50.828;6.440;2022-08-18T03:04:45;16.40;99.90
19555;DHT22;9924;50.828;6.440;2022-08-18T03:07:11;16.40;99.90
19555;DHT22;9924;50.828;6.440;2022-08-18T03:09:39;16.20;99.90
19555;DHT22;9924;50.828;6.440;2022-08-18T03:12:06;16.20;99.90
19555;DHT22;9924;50.828;6.440;2022-08-18T03:14:32;16.20;99.90
19555;DHT22;9924;50.828;6.440;2022-08-18T03:16:59;16.20;99.90
19555;DHT22;9924;50.828;6.440;2022-08-18T03:19:26;16.30;99.90
19555;DHT22;9924;50.828;6.440;2022-08-18T03:21:52;16.30;99.90
19555;DHT22;9924;50.828;6.440;2022-08-18T03:24:20;16.30;99.90
19555;DHT22;9924;50.828;6.440;2022-08-18T03:26:46;16.30;99.90
19555;DHT22;9924;50.828;6.440;2022-08-18T03:29:13;16.30;99.90
19555;DHT22;9924;50.828;6.440;2022-08-18T03:31:42;16.30;99.90
19555;DHT22;9924;50.828;6.440;2022-08-18T03:34:08;16.40;99.90
19555;DHT22;9924;50.828;6.440;2022-08-18T03:36:35;16.40;99.90
19555;DHT22;9924;50.828;6.440;2022-08-18T03:39:04;16.40;99.90
19555;DHT22;9924;50.828;6.440;2022-08-18T03:41:30;16.50;99.90
19555;DHT22;9924;50.828;6.440;2022-08-18T03:43:56;16.50;99.90
19555;DHT22;9924;50.828;6.440;2022-08-18T03:46:22;16.50;99.90
19555;DHT22;9924;50.828;6.440;2022-08-18T03:48:48;16.50;99.90
19555;DHT22;9924;50.828;6.440;2022-08-18T03:51:22;16.50;99.90
19555;DHT22;9924;50.828;6.440;2022-08-18T03:53:50;16.50;99.90
19555;DHT22;9924;50.828;6.440;2022-08-18T03:56:19;16.50;99.90
19555;DHT22;9924;50.828;6.440;2022-08-18T03:58:47;16.50;99.90
19555;DHT22;9924;50.828;6.440;2022-08-18T04:01:16;16.50;99.90
19555;DHT22;9924;50.828;6.440;2022-08-18T04:03:48;16.40;99.90
19555;DHT22;9924;50.828;6.440;2022-08-18T04:06:16;16.40;99.90
19555;DHT22;9924;50.828;6.440;2022-08-18T04:08:41;16.40;99.90
19555;DHT22;9924;50.828;6.440;2022-08-18T04:11:09;16.40;99.90
19555;DHT22;9924;50.828;6.440;2022-08-18T04:13:35;16.30;99.90
19555;DHT22;9924;50.828;6.440;2022-08-18T04:16:02;16.20;99.90
19555;DHT22;9924;50.828;6.440;2022-08-18T04:18:28;16.20;99.90
19555;DHT22;9924;50.828;6.440;2022-08-18T04:20:54;16.10;99.90
19555;DHT22;9924;50.828;6.440;2022-08-18T04:23:20;16.10;99.90
19555;DHT22;9924;50.828;6.440;2022-08-18T04:25:55;16.00;99.90
19555;DHT22;9924;50.828;6.440;2022-08-18T04:28:21;16.00;99.90
19555;DHT22;9924;50.828;6.440;2022-08-18T04:30:46;16.10;99.90
19555;DHT22;9924;50.828;6.440;2022-08-18T04:33:12;16.30;99.90
19555;DHT22;9924;50.828;6.440;2022-08-18T04:35:38;16.60;99.90
19555;DHT22;9924;50.828;6.440;2022-08-18T04:38:04;16.70;99.90
19555;DHT22;9924;50.828;6.440;2022-08-18T04:40:32;16.90;99.90
19555;DHT22;9924;50.828;6.440;2022-08-18T04:42:59;17.00;99.90
19555;DHT22;9924;50.828;6.440;2022-08-18T04:45:26;17.00;99.90
19555;DHT22;9924;50.828;6.440;2022-08-18T04:47:52;17.00;99.90
19555;DHT22;9924;50.828;6.440;2022-08-18T04:50:18;16.90;99.90
19555;DHT22;9924;50.828;6.440;2022-08-18T04:52:44;16.90;99.90
19555;DHT22;9924;50.828;6.440;2022-08-18T04:55:28;16.90;99.90
19555;DHT22;9924;50.828;6.440;2022-08-18T04:57:55;17.00;99.90
19555;DHT22;9924;50.828;6.440;2022-08-18T05:00:20;17.00;99.90
19555;DHT22;9924;50.828;6.440;2022-08-18T05:02:46;17.00;99.90
19555;DHT22;9924;50.828;6.440;2022-08-18T05:05:13;17.00;99.90
19555;DHT22;9924;50.828;6.440;2022-08-18T05:07:44;17.00;99.90
19555;DHT22;9924;50.828;6.440;2022-08-18T05:10:10;17.10;99.90
19555;DHT22;9924;50.828;6.440;2022-08-18T05:12:37;17.10;99.90
19555;DHT22;9924;50.828;6.440;2022-08-18T05:15:08;17.20;99.90
19555;DHT22;9924;50.828;6.440;2022-08-18T05:17:37;17.30;99.90
19555;DHT22;9924;50.828;6.440;2022-08-18T05:20:06;17.40;99.90
19555;DHT22;9924;50.828;6.440;2022-08-18T05:22:40;17.40;99.90
19555;DHT22;9924;50.828;6.440;2022-08-18T05:25:08;17.50;99.90
19555;DHT22;9924;50.828;6.440;2022-08-18T05:27:37;17.50;99.90
19555;DHT22;9924;50.828;6.440;2022-08-18T05:30:05;17.60;99.90
19555;DHT22;9924;50.828;6.440;2022-08-18T05:32:34;17.70;99.90
19555;DHT22;9924;50.828;6.440;2022-08-18T05:35:03;17.70;99.90
19555;DHT22;9924;50.828;6.440;2022-08-18T05:40:23;17.80;99.90
19555;DHT22;9924;50.828;6.440;2022-08-18T05:42:49;17.80;99.90
19555;DHT22;9924;50.828;6.440;2022-08-18T05:45:17;17.80;99.90
19555;DHT22;9924;50.828;6.440;2022-08-18T05:47:49;17.90;99.90
19555;DHT22;9924;50.828;6.440;2022-08-18T05:50:17;17.90;99.90
19555;DHT22;9924;50.828;6.440;2022-08-18T05:52:53;17.90;99.90
19555;DHT22;9924;50.828;6.440;2022-08-18T05:58:16;17.90;99.90
19555;DHT22;9924;50.828;6.440;2022-08-18T06:00:49;18.00;99.90
19555;DHT22;9924;50.828;6.440;2022-08-18T06:03:25;18.00;99.90
19555;DHT22;9924;50.828;6.440;2022-08-18T06:08:26;18.30;99.90
19555;DHT22;9924;50.828;6.440;2022-08-18T06:10:53;18.30;99.90
19555;DHT22;9924;50.828;6.440;2022-08-18T06:13:19;18.30;99.90
19555;DHT22;9924;50.828;6.440;2022-08-18T06:24:16;18.10;99.90
19555;DHT22;9924;50.828;6.440;2022-08-18T06:27:02;18.00;99.90
19555;DHT22;9924;50.828;6.440;2022-08-18T06:37:41;18.00;99.90
19555;DHT22;9924;50.828;6.440;2022-08-18T06:40:28;18.00;99.90
19555;DHT22;9924;50.828;6.440;2022-08-18T06:42:54;18.00;99.90
19555;DHT22;9924;50.828;6.440;2022-08-18T06:45:25;18.00;99.90
19555;DHT22;9924;50.828;6.440;2022-08-18T06:48:17;18.00;99.90
19555;DHT22;9924;50.828;6.440;2022-08-18T06:50:56;18.00;99.90
19555;DHT22;9924;50.828;6.440;2022-08-18T06:59:31;18.00;99.90
19555;DHT22;9924;50.828;6.440;2022-08-18T07:02:44;18.00;99.90
19555;DHT22;9924;50.828;6.440;2022-08-18T07:05:24;18.00;99.90
19555;DHT22;9924;50.828;6.440;2022-08-18T07:08:09;18.10;99.90
19555;DHT22;9924;50.828;6.440;2022-08-18T07:10:49;18.10;99.90
19555;DHT22;9924;50.828;6.440;2022-08-18T07:13:24;18.10;99.90
19555;DHT22;9924;50.828;6.440;2022-08-18T07:15:55;18.20;99.90
19555;DHT22;9924;50.828;6.440;2022-08-18T07:18:37;18.20;99.90
19555;DHT22;9924;50.828;6.440;2022-08-18T07:21:03;18.20;99.90
19555;DHT22;9924;50.828;6.440;2022-08-18T07:23:36;18.20;99.90
19555;DHT22;9924;50.828;6.440;2022-08-18T07:26:12;18.20;99.90
19555;DHT22;9924;50.828;6.440;2022-08-18T07:28:50;18.20;99.90
19555;DHT22;9924;50.828;6.440;2022-08-18T07:31:43;18.20;99.90
19555;DHT22;9924;50.828;6.440;2022-08-18T07:34:36;18.20;99.90
19555;DHT22;9924;50.828;6.440;2022-08-18T07:37:23;18.20;99.90
19555;DHT22;9924;50.828;6.440;2022-08-18T07:40:08;18.30;99.90
19555;DHT22;9924;50.828;6.440;2022-08-18T07:42:50;18.40;99.90
19555;DHT22;9924;50.828;6.440;2022-08-18T07:50:49;18.70;99.90
19555;DHT22;9924;50.828;6.440;2022-08-18T07:58:50;19.00;99.90
19555;DHT22;9924;50.828;6.440;2022-08-18T08:06:53;19.20;99.90
19555;DHT22;9924;50.828;6.440;2022-08-18T08:09:31;19.20;99.90
19555;DHT22;9924;50.828;6.440;2022-08-18T08:12:14;19.20;99.90
19555;DHT22;9924;50.828;6.440;2022-08-18T08:14:48;19.20;99.90
19555;DHT22;9924;50.828;6.440;2022-08-18T08:20:53;19.20;99.90
19555;DHT22;9924;50.828;6.440;2022-08-18T08:34:23;19.20;99.90
19555;DHT22;9924;50.828;6.440;2022-08-18T08:37:03;19.30;99.90
19555;DHT22;9924;50.828;6.440;2022-08-18T08:39:42;19.50;99.90
19555;DHT22;9924;50.828;6.440;2022-08-18T08:42:19;19.60;99.90
19555;DHT22;9924;50.828;6.440;2022-08-18T08:44:57;19.70;99.90
19555;DHT22;9924;50.828;6.440;2022-08-18T08:47:53;19.80;99.90
19555;DHT22;9924;50.828;6.440;2022-08-18T08:50:24;20.00;99.90
19555;DHT22;9924;50.828;6.440;2022-08-18T08:52:56;20.20;99.90
19555;DHT22;9924;50.828;6.440;2022-08-18T08:55:28;20.40;99.90
19555;DHT22;9924;50.828;6.440;2022-08-18T09:00:33;20.50;99.90
19555;DHT22;9924;50.828;6.440;2022-08-18T09:03:20;20.60;99.90
19555;DHT22;9924;50.828;6.440;2022-08-18T09:23:09;21.20;99.90
19555;DHT22;9924;50.828;6.440;2022-08-18T09:38:37;20.80;99.90
19555;DHT22;9924;50.828;6.440;2022-08-18T09:41:34;20.70;99.90
19555;DHT22;9924;50.828;6.440;2022-08-18T09:54:47;20.90;99.90
19555;DHT22;9924;50.828;6.440;2022-08-18T09:57:26;20.90;99.90
19555;DHT22;9924;50.828;6.440;2022-08-18T10:11:01;20.90;99.90
19555;DHT22;9924;50.828;6.440;2022-08-18T10:13:41;20.90;99.90
19555;DHT22;9924;50.828;6.440;2022-08-18T10:22:08;21.20;99.90
19555;DHT22;9924;50.828;6.440;2022-08-18T10:27:32;21.30;99.90
19555;DHT22;9924;50.828;6.440;2022-08-18T10:29:57;21.30;99.90
19555;DHT22;9924;50.828;6.440;2022-08-18T10:32:36;21.40;99.90
19555;DHT22;9924;50.828;6.440;2022-08-18T10:35:02;21.60;99.90
19555;DHT22;9924;50.828;6.440;2022-08-18T10:37:47;21.80;99.90
19555;DHT22;9924;50.828;6.440;2022-08-18T10:40:17;22.00;99.90
19555;DHT22;9924;50.828;6.440;2022-08-18T10:45:34;22.20;99.90
19555;DHT22;9924;50.828;6.440;2022-08-18T10:51:05;22.30;99.90
19555;DHT22;9924;50.828;6.440;2022-08-18T10:53:58;22.30;99.90
19555;DHT22;9924;50.828;6.440;2022-08-18T10:56:41;22.20;99.90
19555;DHT22;9924;50.828;6.440;2022-08-18T10:59:31;22.30;99.90
19555;DHT22;9924;50.828;6.440;2022-08-18T11:04:50;22.40;99.90
19555;DHT22;9924;50.828;6.440;2022-08-18T11:07:23;22.60;99.90
19555;DHT22;9924;50.828;6.440;2022-08-18T11:09:52;22.80;99.90
19555;DHT22;9924;50.828;6.440;2022-08-18T11:20:15;24.60;99.90
19555;DHT22;9924;50.828;6.440;2022-08-18T11:22:53;24.80;99.90
19555;DHT22;9924;50.828;6.440;2022-08-18T11:25:37;24.90;99.90
19555;DHT22;9924;50.828;6.440;2022-08-18T11:28:15;24.90;99.90
19555;DHT22;9924;50.828;6.440;2022-08-18T11:30:45;25.20;99.90
19555;DHT22;9924;50.828;6.440;2022-08-18T11:33:16;25.20;99.90
19555;DHT22;9924;50.828;6.440;2022-08-18T11:35:54;25.00;99.90
19555;DHT22;9924;50.828;6.440;2022-08-18T11:38:26;25.00;99.90
19555;DHT22;9924;50.828;6.440;2022-08-18T11:41:17;25.40;99.90
19555;DHT22;9924;50.828;6.440;2022-08-18T11:43:43;25.40;99.90
19555;DHT22;9924;50.828;6.440;2022-08-18T11:48:49;25.50;99.90
19555;DHT22;9924;50.828;6.440;2022-08-18T11:58:55;25.50;99.90
19555;DHT22;9924;50.828;6.440;2022-08-18T12:01:31;25.50;99.90
19555;DHT22;9924;50.828;6.440;2022-08-18T12:04:13;25.40;99.90
19555;DHT22;9924;50.828;6.440;2022-08-18T12:06:56;25.60;99.90
19555;DHT22;9924;50.828;6.440;2022-08-18T12:17:27;25.70;99.90
19555;DHT22;9924;50.828;6.440;2022-08-18T12:19:53;25.70;99.90
19555;DHT22;9924;50.828;6.440;2022-08-18T12:22:25;25.70;99.90
19555;DHT22;9924;50.828;6.440;2022-08-18T12:24:52;25.60;99.90
19555;DHT22;9924;50.828;6.440;2022-08-18T12:27:21;25.60;99.90
19555;DHT22;9924;50.828;6.440;2022-08-18T12:29:52;25.60;99.90
19555;DHT22;9924;50.828;6.440;2022-08-18T12:32:20;25.50;99.90
19555;DHT22;9924;50.828;6.440;2022-08-18T12:34:47;25.20;99.90
19555;DHT22;9924;50.828;6.440;2022-08-18T12:37:20;25.10;99.90
19555;DHT22;9924;50.828;6.440;2022-08-18T12:39:47;24.80;99.90
19555;DHT22;9924;50.828;6.440;2022-08-18T12:42:13;24.70;99.90
19555;DHT22;9924;50.828;6.440;2022-08-18T12:44:40;24.70;99.90
19555;DHT22;9924;50.828;6.440;2022-08-18T12:47:20;24.70;99.90
19555;DHT22;9924;50.828;6.440;2022-08-18T12:49:47;24.80;99.90
19555;DHT22;9924;50.828;6.440;2022-08-18T12:52:13;24.80;99.90
19555;DHT22;9924;50.828;6.440;2022-08-18T12:54:42;24.90;99.90
19555;DHT22;9924;50.828;6.440;2022-08-18T12:57:33;25.10;99.90
19555;DHT22;9924;50.828;6.440;2022-08-18T12:59:59;25.20;99.90
19555;DHT22;9924;50.828;6.440;2022-08-18T13:02:25;25.40;99.90
19555;DHT22;9924;50.828;6.440;2022-08-18T13:04:54;25.90;99.90
19555;DHT22;9924;50.828;6.440;2022-08-18T13:07:20;27.00;99.90
19555;DHT22;9924;50.828;6.440;2022-08-18T13:09:46;27.90;99.90
19555;DHT22;9924;50.828;6.440;2022-08-18T13:12:13;28.00;99.90
19555;DHT22;9924;50.828;6.440;2022-08-18T13:14:39;28.00;99.90
19555;DHT22;9924;50.828;6.440;2022-08-18T13:17:05;27.60;99.90
19555;DHT22;9924;50.828;6.440;2022-08-18T13:19:31;27.10;99.90
19555;DHT22;9924;50.828;6.440;2022-08-18T13:21:57;26.90;99.90
19555;DHT22;9924;50.828;6.440;2022-08-18T13:24:26;26.60;99.90
19555;DHT22;9924;50.828;6.440;2022-08-18T13:26:51;26.10;99.90
19555;DHT22;9924;50.828;6.440;2022-08-18T13:29:18;25.80;99.90
19555;DHT22;9924;50.828;6.440;2022-08-18T13:31:45;25.70;99.90
19555;DHT22;9924;50.828;6.440;2022-08-18T13:34:12;25.60;99.90
19555;DHT22;9924;50.828;6.440;2022-08-18T13:36:38;25.60;99.90
19555;DHT22;9924;50.828;6.440;2022-08-18T13:39:21;25.80;99.90
19555;DHT22;9924;50.828;6.440;2022-08-18T13:41:50;26.20;99.90
19555;DHT22;9924;50.828;6.440;2022-08-18T13:44:17;26.40;99.90
19555;DHT22;9924;50.828;6.440;2022-08-18T13:46:44;27.00;99.90
19555;DHT22;9924;50.828;6.440;2022-08-18T13:49:19;27.30;99.90
19555;DHT22;9924;50.828;6.440;2022-08-18T13:51:46;27.40;99.90
19555;DHT22;9924;50.828;6.440;2022-08-18T13:54:22;27.20;99.90
19555;DHT22;9924;50.828;6.440;2022-08-18T13:56:48;27.60;99.90
19555;DHT22;9924;50.828;6.440;2022-08-18T13:59:14;28.00;99.90
19555;DHT22;9924;50.828;6.440;2022-08-18T14:01:42;28.30;99.90
19555;DHT22;9924;50.828;6.440;2022-08-18T14:04:08;28.70;99.90
19555;DHT22;9924;50.828;6.440;2022-08-18T14:06:37;28.50;99.90
19555;DHT22;9924;50.828;6.440;2022-08-18T14:09:04;28.10;99.90
19555;DHT22;9924;50.828;6.440;2022-08-18T14:11:31;28.00;99.90
19555;DHT22;9924;50.828;6.440;2022-08-18T14:13:59;28.00;99.90
19555;DHT22;9924;50.828;6.440;2022-08-18T14:16:26;28.00;99.90
19555;DHT22;9924;50.828;6.440;2022-08-18T14:18:52;28.00;99.90
19555;DHT22;9924;50.828;6.440;2022-08-18T14:21:45;27.80;99.90
19555;DHT22;9924;50.828;6.440;2022-08-18T14:24:31;27.50;99.90
19555;DHT22;9924;50.828;6.440;2022-08-18T14:27:23;27.40;99.90
19555;DHT22;9924;50.828;6.440;2022-08-18T14:29:49;27.10;99.90
19555;DHT22;9924;50.828;6.440;2022-08-18T14:32:20;27.00;99.90
19555;DHT22;9924;50.828;6.440;2022-08-18T14:34:47;26.70;99.90
19555;DHT22;9924;50.828;6.440;2022-08-18T14:37:12;26.90;99.90
19555;DHT22;9924;50.828;6.440;2022-08-18T14:39:38;27.20;99.90
19555;DHT22;9924;50.828;6.440;2022-08-18T14:42:04;27.40;99.90
19555;DHT22;9924;50.828;6.440;2022-08-18T14:44:30;27.70;99.90
19555;DHT22;9924;50.828;6.440;2022-08-18T14:46:55;27.80;99.90
19555;DHT22;9924;50.828;6.440;2022-08-18T14:49:25;28.00;99.90
19555;DHT22;9924;50.828;6.440;2022-08-18T14:51:51;28.60;99.90
19555;DHT22;9924;50.828;6.440;2022-08-18T14:54:16;29.10;99.90
19555;DHT22;9924;50.828;6.440;2022-08-18T14:56:42;29.30;99.90
19555;DHT22;9924;50.828;6.440;2022-08-18T14:59:08;29.30;99.90
19555;DHT22;9924;50.828;6.440;2022-08-18T15:01:37;29.10;99.90
19555;DHT22;9924;50.828;6.440;2022-08-18T15:04:03;28.90;99.90
19555;DHT22;9924;50.828;6.440;2022-08-18T15:06:29;28.90;99.90
19555;DHT22;9924;50.828;6.440;2022-08-18T15:08:56;29.00;99.90
19555;DHT22;9924;50.828;6.440;2022-08-18T15:11:21;29.00;99.90
19555;DHT22;9924;50.828;6.440;2022-08-18T15:13:47;28.80;99.90
19555;DHT22;9924;50.828;6.440;2022-08-18T15:16:14;28.70;99.90
19555;DHT22;9924;50.828;6.440;2022-08-18T15:18:45;28.40;99.90
19555;DHT22;9924;50.828;6.440;2022-08-18T15:21:11;28.30;99.90
19555;DHT22;9924;50.828;6.440;2022-08-18T15:23:55;28.50;99.90
19555;DHT22;9924;50.828;6.440;2022-08-18T15:26:40;28.50;99.90
19555;DHT22;9924;50.828;6.440;2022-08-18T15:29:07;28.70;99.90
19555;DHT22;9924;50.828;6.440;2022-08-18T15:31:33;28.90;99.90
19555;DHT22;9924;50.828;6.440;2022-08-18T15:34:00;28.80;99.90
19555;DHT22;9924;50.828;6.440;2022-08-18T15:36:26;28.90;99.90
19555;DHT22;9924;50.828;6.440;2022-08-18T15:38:52;29.10;99.90
19555;DHT22;9924;50.828;6.440;2022-08-18T15:41:31;28.80;99.90
19555;DHT22;9924;50.828;6.440;2022-08-18T15:43:59;28.90;99.90
19555;DHT22;9924;50.828;6.440;2022-08-18T15:46:31;29.00;99.90
19555;DHT22;9924;50.828;6.440;2022-08-18T15:48:56;29.30;99.90
19555;DHT22;9924;50.828;6.440;2022-08-18T15:51:22;29.30;99.90
19555;DHT22;9924;50.828;6.440;2022-08-18T15:53:48;29.10;99.90
19555;DHT22;9924;50.828;6.440;2022-08-18T15:56:19;28.70;99.90
19555;DHT22;9924;50.828;6.440;2022-08-18T15:58:45;28.30;99.90
19555;DHT22;9924;50.828;6.440;2022-08-18T16:01:13;28.20;99.90
19555;DHT22;9924;50.828;6.440;2022-08-18T16:03:39;28.20;99.90
19555;DHT22;9924;50.828;6.440;2022-08-18T16:06:06;28.40;99.90
19555;DHT22;9924;50.828;6.440;2022-08-18T16:08:36;28.40;99.90
19555;DHT22;9924;50.828;6.440;2022-08-18T16:11:08;28.40;99.90
19555;DHT22;9924;50.828;6.440;2022-08-18T16:13:34;28.50;99.90
19555;DHT22;9924;50.828;6.440;2022-08-18T16:16:02;28.40;99.90
19555;DHT22;9924;50.828;6.440;2022-08-18T16:18:32;28.30;99.90
19555;DHT22;9924;50.828;6.440;2022-08-18T16:21:03;28.20;99.90
19555;DHT22;9924;50.828;6.440;2022-08-18T16:23:29;28.30;99.90
19555;DHT22;9924;50.828;6.440;2022-08-18T16:25:59;28.20;99.90
19555;DHT22;9924;50.828;6.440;2022-08-18T16:28:26;28.10;99.90
19555;DHT22;9924;50.828;6.440;2022-08-18T16:30:52;28.00;99.90
19555;DHT22;9924;50.828;6.440;2022-08-18T16:33:19;27.70;99.90
19555;DHT22;9924;50.828;6.440;2022-08-18T16:35:46;27.60;99.90
19555;DHT22;9924;50.828;6.440;2022-08-18T16:38:14;27.20;99.90
19555;DHT22;9924;50.828;6.440;2022-08-18T16:40:40;27.00;99.90
19555;DHT22;9924;50.828;6.440;2022-08-18T16:43:06;26.90;99.90
19555;DHT22;9924;50.828;6.440;2022-08-18T16:45:32;26.80;99.90
19555;DHT22;9924;50.828;6.440;2022-08-18T16:48:00;26.70;99.90
19555;DHT22;9924;50.828;6.440;2022-08-18T16:50:26;26.40;99.90
19555;DHT22;9924;50.828;6.440;2022-08-18T16:52:52;26.20;99.90
19555;DHT22;9924;50.828;6.440;2022-08-18T16:55:18;26.00;99.90
19555;DHT22;9924;50.828;6.440;2022-08-18T16:57:44;25.90;99.90
19555;DHT22;9924;50.828;6.440;2022-08-18T17:00:31;25.90;99.90
19555;DHT22;9924;50.828;6.440;2022-08-18T17:03:15;25.90;99.90
19555;DHT22;9924;50.828;6.440;2022-08-18T17:06:05;25.90;99.90
19555;DHT22;9924;50.828;6.440;2022-08-18T17:08:31;25.80;99.90
19555;DHT22;9924;50.828;6.440;2022-08-18T17:10:59;25.90;99.90
19555;DHT22;9924;50.828;6.440;2022-08-18T17:13:26;25.90;99.90
19555;DHT22;9924;50.828;6.440;2022-08-18T17:15:52;25.90;99.90
19555;DHT22;9924;50.828;6.440;2022-08-18T17:18:18;25.80;99.90
19555;DHT22;9924;50.828;6.440;2022-08-18T17:20:45;25.80;99.90
19555;DHT22;9924;50.828;6.440;2022-08-18T17:23:10;25.70;99.90
19555;DHT22;9924;50.828;6.440;2022-08-18T17:25:36;25.70;99.90
19555;DHT22;9924;50.828;6.440;2022-08-18T17:28:03;25.60;99.90
19555;DHT22;9924;50.828;6.440;2022-08-18T17:30:32;25.50;99.90
19555;DHT22;9924;50.828;6.440;2022-08-18T17:33:04;25.40;99.90
19555;DHT22;9924;50.828;6.440;2022-08-18T17:35:39;25.30;99.90
19555;DHT22;9924;50.828;6.440;2022-08-18T17:40:57;25.20;99.90
19555;DHT22;9924;50.828;6.440;2022-08-18T17:43:31;25.10;99.90
19555;DHT22;9924;50.828;6.440;2022-08-18T17:46:05;25.10;99.90
19555;DHT22;9924;50.828;6.440;2022-08-18T17:48:39;25.00;99.90
19555;DHT22;9924;50.828;6.440;2022-08-18T17:51:11;24.90;99.90
19555;DHT22;9924;50.828;6.440;2022-08-18T17:53:58;24.80;99.90
19555;DHT22;9924;50.828;6.440;2022-08-18T17:56:30;24.60;99.90
19555;DHT22;9924;50.828;6.440;2022-08-18T17:59:10;24.50;99.90
19555;DHT22;9924;50.828;6.440;2022-08-18T18:01:37;24.30;99.90
19555;DHT22;9924;50.828;6.440;2022-08-18T18:04:03;24.30;99.90
19555;DHT22;9924;50.828;6.440;2022-08-18T18:06:40;24.30;99.90
19555;DHT22;9924;50.828;6.440;2022-08-18T18:09:11;24.20;99.90
19555;DHT22;9924;50.828;6.440;2022-08-18T18:11:52;24.20;99.90
19555;DHT22;9924;50.828;6.440;2022-08-18T18:17:14;24.10;99.90
19555;DHT22;9924;50.828;6.440;2022-08-18T18:19:44;23.90;99.90
19555;DHT22;9924;50.828;6.440;2022-08-18T18:22:27;23.80;99.90
19555;DHT22;9924;50.828;6.440;2022-08-18T18:24:59;23.70;99.90
19555;DHT22;9924;50.828;6.440;2022-08-18T18:27:38;23.50;99.90
19555;DHT22;9924;50.828;6.440;2022-08-18T18:30:17;23.30;99.90
19555;DHT22;9924;50.828;6.440;2022-08-18T18:32:48;23.10;99.90
19555;DHT22;9924;50.828;6.440;2022-08-18T18:35:50;22.90;99.90
19555;DHT22;9924;50.828;6.440;2022-08-18T18:41:20;22.60;99.90
19555;DHT22;9924;50.828;6.440;2022-08-18T18:43:47;22.40;99.90
19555;DHT22;9924;50.828;6.440;2022-08-18T18:54:42;21.70;99.90
19555;DHT22;9924;50.828;6.440;2022-08-18T18:57:28;21.70;99.90
19555;DHT22;9924;50.828;6.440;2022-08-18T19:03:08;21.50;99.90
19555;DHT22;9924;50.828;6.440;2022-08-18T19:10:56;21.20;99.90
19555;DHT22;9924;50.828;6.440;2022-08-18T19:13:30;21.10;99.90
19555;DHT22;9924;50.828;6.440;2022-08-18T19:16:10;21.00;99.90